createdAt,value
2022-09-28T00:03:04.306Z,99060.25
2022-09-28T00:08:05.734Z,99052.28
2022-09-28T00:13:07.103Z,99052.53
2022-09-28T00:18:08.483Z,99059.44
2022-09-28T00:23:09.828Z,99054.72
2022-09-28T00:28:11.202Z,99061.88
2022-09-28T00:33:12.560Z,99050.69
2022-09-28T00:38:13.930Z,99053.34
2022-09-28T00:43:22.433Z,99044.13
2022-09-28T00:48:27.556Z,99045.81
2022-09-28T00:53:33.018Z,99043.63
2022-09-28T00:58:39.150Z,99035.53
2022-09-28T01:03:40.701Z,99028.66
2022-09-28T01:08:42.218Z,99029.44
2022-09-28T01:13:44.508Z,99024.59
2022-09-28T01:19:13.622Z,99017.44
2022-09-28T01:25:06.463Z,99027.69
2022-09-28T01:30:14.808Z,99024.50
2022-09-28T01:35:18.806Z,99021.25
2022-09-28T01:40:26.243Z,99016.28
2022-09-28T01:45:33.136Z,99022.41
2022-09-28T01:50:38.328Z,99021.13
2022-09-28T01:55:48.036Z,99022.75
2022-09-28T02:00:56.689Z,99017.44
2022-09-28T02:06:05.688Z,99014.22
2022-09-28T02:11:15.394Z,99009.72
2022-09-28T02:16:28.328Z,99017.44
2022-09-28T02:21:38.991Z,99013.41
2022-09-28T02:26:44.546Z,99017.56
2022-09-28T02:31:46.028Z,99010.06
2022-09-28T02:36:47.652Z,99018.03
2022-09-28T02:42:08.681Z,99020.13
2022-09-28T02:47:15.733Z,99022.50
2022-09-28T02:52:51.220Z,99023.91
2022-09-28T02:58:10.956Z,99025.75
2022-09-28T03:03:27.589Z,99022.88
2022-09-28T03:08:43.083Z,99022.88
2022-09-28T03:13:44.980Z,99015.72
2022-09-28T03:18:46.883Z,99032.56
2022-09-28T03:23:48.249Z,99016.97
2022-09-28T03:28:49.654Z,99024.25
2022-09-28T03:33:51.580Z,99025.88
2022-09-28T03:38:53.536Z,99027.72
2022-09-28T03:43:54.882Z,99024.16
2022-09-28T03:48:57.269Z,99023.34
2022-09-28T03:53:58.604Z,99021.84
2022-09-28T03:58:59.939Z,99012.84
2022-09-28T04:04:01.532Z,99019.53
2022-09-28T04:09:02.960Z,99019.06
2022-09-28T04:14:04.456Z,99021.16
2022-09-28T04:19:05.820Z,99033.72
2022-09-28T04:24:07.229Z,99023.53
2022-09-28T04:29:12.355Z,99031.38
2022-09-28T04:34:16.600Z,99033.94
2022-09-28T04:39:18.809Z,99034.28
2022-09-28T04:44:20.473Z,99031.28
2022-09-28T04:49:21.867Z,99026.81
2022-09-28T04:54:23.205Z,99034.63
2022-09-28T04:59:24.703Z,99028.88
2022-09-28T05:04:26.358Z,99028.63
2022-09-28T05:09:27.762Z,99036.69
2022-09-28T05:14:29.108Z,99037.41
2022-09-28T05:19:30.893Z,99044.06
2022-09-28T05:24:32.255Z,99043.41
2022-09-28T05:29:33.624Z,99047.75
2022-09-28T05:34:34.979Z,99047.66
2022-09-28T05:39:36.425Z,99037.75
2022-09-28T05:44:37.760Z,99045.72
2022-09-28T05:49:40.170Z,99047.41
2022-09-28T05:54:41.543Z,99044.44
2022-09-28T05:59:42.925Z,99049.56
2022-09-28T06:04:44.301Z,99054.34
2022-09-28T06:09:45.634Z,99055.50
2022-09-28T06:14:46.991Z,99056.28
2022-09-28T06:19:48.359Z,99065.03
2022-09-28T06:24:49.720Z,99068.72
2022-09-28T06:29:51.067Z,99070.22
2022-09-28T06:34:56.205Z,99080.75
2022-09-28T06:39:57.849Z,99090.41
2022-09-28T06:44:59.205Z,99095.81
2022-09-28T06:50:00.736Z,99095.25
2022-09-28T06:55:02.093Z,99102.53
2022-09-28T07:00:04.356Z,99101.22
2022-09-28T07:05:21.043Z,99102.44
2022-09-28T07:10:27.357Z,99114.34
2022-09-28T07:15:29.206Z,99118.72
2022-09-28T07:20:33.379Z,99119.63
2022-09-28T07:25:37.331Z,99126.94
2022-09-28T07:30:38.853Z,99132.19
2022-09-28T07:35:40.634Z,99147.88
2022-09-28T07:40:46.239Z,99149.50
2022-09-28T07:45:53.956Z,99149.72
2022-09-28T07:50:56.891Z,99149.72
2022-09-28T07:56:01.293Z,99163.09
2022-09-28T08:01:05.673Z,99175.63
2022-09-28T08:06:08.468Z,99170.94
2022-09-28T08:11:14.614Z,99177.00
2022-09-28T08:16:16.099Z,99175.91
2022-09-28T08:21:17.752Z,99175.25
2022-09-28T08:26:19.324Z,99180.41
2022-09-28T08:31:20.801Z,99187.06
2022-09-28T08:36:22.241Z,99191.75
2022-09-28T08:41:48.200Z,99196.19
2022-09-28T08:46:55.382Z,99204.72
2022-09-28T08:52:11.482Z,99202.16
2022-09-28T08:57:49.451Z,99207.22
2022-09-28T09:02:54.671Z,99209.34
2022-09-28T09:08:14.276Z,99211.59
2022-09-28T09:13:40.409Z,99227.16
2022-09-28T09:18:53.952Z,99233.22
2022-09-28T09:23:57.246Z,99227.47
2022-09-28T09:29:21.218Z,99236.81
2022-09-28T09:34:46.631Z,99228.91
2022-09-28T09:40:03.256Z,99235.63
2022-09-28T09:45:10.570Z,99236.16
2022-09-28T09:50:29.475Z,99246.91
2022-09-28T09:55:38.125Z,99241.63
2022-09-28T10:00:42.732Z,99239.97
2022-09-28T10:05:51.390Z,99239.47
2022-09-28T10:11:02.100Z,99245.94
2022-09-28T10:16:05.811Z,99249.41
2022-09-28T10:21:11.525Z,99244.31
2022-09-28T10:26:22.808Z,99244.09
2022-09-28T10:31:50.063Z,99241.41
2022-09-28T10:37:11.046Z,99245.22
2022-09-28T10:42:18.859Z,99260.06
2022-09-28T10:47:24.301Z,99242.41
2022-09-28T10:52:34.160Z,99256.34
2022-09-28T10:57:36.163Z,99255.88
2022-09-28T11:02:40.105Z,99256.81
2022-09-28T11:07:46.948Z,99263.94
2022-09-28T11:12:49.849Z,99256.47
2022-09-28T11:17:51.628Z,99259.25
2022-09-28T11:22:54.287Z,99253.44
2022-09-28T11:27:57.172Z,99265.16
2022-09-28T11:33:11.581Z,99265.03
2022-09-28T11:38:31.124Z,99260.22
2022-09-28T11:44:10.118Z,99256.16
2022-09-28T11:49:20.771Z,99257.97
2022-09-28T11:54:22.050Z,99259.38
2022-09-28T11:59:32.344Z,99256.56
2022-09-28T12:04:39.119Z,99259.78
2022-09-28T12:09:50.112Z,99263.03
2022-09-28T12:14:57.085Z,99269.69
2022-09-28T12:20:05.591Z,99265.28
2022-09-28T12:25:47.340Z,99266.97
2022-09-28T12:30:52.358Z,99265.13
2022-09-28T12:36:25.906Z,99259.00
2022-09-28T12:41:56.615Z,99254.66
2022-09-28T12:47:30.278Z,99251.91
2022-09-28T12:52:57.021Z,99243.06
2022-09-28T12:58:34.454Z,99248.66
2022-09-28T13:03:51.139Z,99254.56
2022-09-28T13:09:18.721Z,99246.91
2022-09-28T13:14:45.006Z,99248.44
2022-09-28T13:19:58.610Z,99249.09
2022-09-28T13:25:05.895Z,99242.81
2022-09-28T13:30:08.105Z,99235.16
2022-09-28T13:35:18.294Z,99243.84
2022-09-28T13:40:54.326Z,99250.16
2022-09-28T13:46:00.254Z,99256.66
2022-09-28T13:51:09.016Z,99246.75
2022-09-28T13:56:42.752Z,99230.84
2022-09-28T14:02:09.938Z,99241.03
2022-09-28T14:07:20.379Z,99237.84
2022-09-28T14:12:43.017Z,99241.94
2022-09-28T14:17:50.485Z,99242.44
2022-09-28T14:23:23.692Z,99234.94
2022-09-28T14:29:05.256Z,99245.94
2022-09-28T14:34:37.963Z,99249.91
2022-09-28T14:39:44.826Z,99247.16
2022-09-28T14:45:07.081Z,99245.47
2022-09-28T14:50:25.675Z,99266.47
2022-09-28T14:55:43.942Z,99261.28
2022-09-28T15:00:47.657Z,99268.94
2022-09-28T15:05:49.181Z,99278.75
2022-09-28T15:10:51.627Z,99282.91
2022-09-28T15:16:07.022Z,99267.50
2022-09-28T15:21:08.539Z,99278.63
2022-09-28T15:26:28.305Z,99275.91
2022-09-28T15:31:34.828Z,99282.97
2022-09-28T15:36:44.484Z,99279.47
2022-09-28T15:41:48.894Z,99280.13
2022-09-28T15:46:50.312Z,99282.94
2022-09-28T15:51:54.680Z,99292.50
2022-09-28T15:57:01.556Z,99291.00
2022-09-28T16:02:07.530Z,99283.06
2022-09-28T16:07:12.679Z,99292.50
2022-09-28T16:12:14.068Z,99304.00
2022-09-28T16:17:21.272Z,99308.03
2022-09-28T16:22:26.758Z,99319.88
2022-09-28T16:27:43.144Z,99331.06
2022-09-28T16:32:50.139Z,99337.34
2022-09-28T16:38:10.159Z,99336.66
2022-09-28T16:43:29.772Z,99337.22
2022-09-28T16:48:34.287Z,99343.28
2022-09-28T16:53:35.760Z,99351.44
2022-09-28T16:58:37.122Z,99353.78
2022-09-28T17:03:38.500Z,99366.75
2022-09-28T17:08:40.000Z,99364.56
2022-09-28T17:13:41.509Z,99368.78
2022-09-28T17:18:43.372Z,99372.38
2022-09-28T17:23:46.526Z,99371.47
2022-09-28T17:28:47.874Z,99368.81
2022-09-28T17:33:49.214Z,99385.16
2022-09-28T17:38:50.617Z,99390.16
2022-09-28T17:43:51.974Z,99388.69
2022-09-28T17:48:53.723Z,99379.00
2022-09-28T17:53:55.074Z,99385.97
2022-09-28T17:58:58.541Z,99390.38
2022-09-28T18:04:01.373Z,99393.97
2022-09-28T18:09:03.416Z,99403.00
2022-09-28T18:14:09.100Z,99395.47
2022-09-28T18:19:12.492Z,99407.88
2022-09-28T18:24:14.135Z,99406.16
2022-09-28T18:29:17.379Z,99405.69
2022-09-28T18:34:18.831Z,99418.06
2022-09-28T18:39:20.479Z,99420.84
2022-09-28T18:44:22.201Z,99416.09
2022-09-28T18:49:24.724Z,99416.78
2022-09-28T18:54:26.112Z,99418.28
2022-09-28T18:59:27.502Z,99432.59
2022-09-28T19:04:28.961Z,99423.00
2022-09-28T19:09:30.391Z,99426.94
2022-09-28T19:14:31.790Z,99428.00
2022-09-28T19:19:33.165Z,99436.19
2022-09-28T19:24:34.738Z,99430.28
2022-09-28T19:29:36.076Z,99432.38
2022-09-28T19:34:37.519Z,99438.34
2022-09-28T19:39:38.956Z,99445.78
2022-09-28T19:44:40.287Z,99451.91
2022-09-28T19:49:41.695Z,99445.53
2022-09-28T19:54:47.956Z,99447.94
2022-09-28T19:59:52.532Z,99449.56
2022-09-28T20:04:54.353Z,99455.09
2022-09-28T20:09:55.735Z,99459.63
2022-09-28T20:14:57.115Z,99462.75
2022-09-28T20:19:58.451Z,99461.13
2022-09-28T20:24:59.789Z,99470.34
2022-09-28T20:30:01.157Z,99467.69
2022-09-28T20:35:02.507Z,99465.28
2022-09-28T20:40:04.183Z,99469.19
2022-09-28T20:45:05.909Z,99464.69
2022-09-28T20:50:07.840Z,99463.41
2022-09-28T20:55:09.463Z,99461.81
2022-09-28T21:00:11.444Z,99468.72
2022-09-28T21:05:12.885Z,99463.41
2022-09-28T21:10:14.356Z,99458.91
2022-09-28T21:15:15.883Z,99458.91
2022-09-28T21:20:17.263Z,99465.03
2022-09-28T21:25:18.623Z,99464.59
2022-09-28T21:30:20.011Z,99469.09
2022-09-28T21:35:21.459Z,99463.78
2022-09-28T21:40:22.864Z,99467.47
2022-09-28T21:45:24.304Z,99470.94
2022-09-28T21:50:26.859Z,99469.31
2022-09-28T21:55:28.215Z,99463.78
2022-09-28T22:00:29.637Z,99466.66
2022-09-28T22:05:31.018Z,99465.03
2022-09-28T22:10:32.350Z,99468.72
2022-09-28T22:15:33.796Z,99467.94
2022-09-28T22:20:35.182Z,99474.03
2022-09-28T22:25:36.544Z,99474.03
2022-09-28T22:30:37.919Z,99470.59
2022-09-28T22:35:39.260Z,99476.69
2022-09-28T22:40:51.217Z,99475.31
2022-09-28T22:46:07.108Z,99473.47
2022-09-28T22:51:08.853Z,99480.63
2022-09-28T22:56:14.633Z,99486.53
2022-09-28T23:01:22.226Z,99483.06
2022-09-28T23:06:26.484Z,99485.72
2022-09-28T23:11:29.245Z,99485.13
2022-09-28T23:16:30.676Z,99475.53
2022-09-28T23:21:32.084Z,99480.25
2022-09-28T23:26:33.827Z,99477.03
2022-09-28T23:31:35.209Z,99469.50
2022-09-28T23:36:36.578Z,99478.97
2022-09-28T23:41:37.911Z,99478.38
2022-09-28T23:46:39.398Z,99474.31
2022-09-28T23:51:40.831Z,99470.84
2022-09-28T23:56:42.231Z,99479.28
